sensor_id;sensor_type;location;lat;lon;timestamp;P1;durP1;ratioP1;P2;durP2;ratioP2
31306;SDS011;17935;51.120;13.132;2023-09-30T00:02:11;5.40;;;2.20;;
31306;SDS011;17935;51.120;13.132;2023-09-30T00:04:38;7.85;;;2.08;;
31306;SDS011;17935;51.120;13.132;2023-09-30T00:07:04;4.53;;;2.25;;
31306;SDS011;17935;51.120;13.132;2023-09-30T00:09:30;4.50;;;2.58;;
31306;SDS011;17935;51.120;13.132;2023-09-30T00:11:56;7.18;;;2.33;;
31306;SDS011;17935;51.120;13.132;2023-09-30T00:14:22;2.35;;;2.15;;
31306;SDS011;17935;51.120;13.132;2023-09-30T00:16:48;4.40;;;2.42;;
31306;SDS011;17935;51.120;13.132;2023-09-30T00:19:15;6.85;;;2.88;;
31306;SDS011;17935;51.120;13.132;2023-09-30T00:21:41;3.00;;;2.00;;
31306;SDS011;17935;51.120;13.132;2023-09-30T00:24:07;8.70;;;2.10;;
31306;SDS011;17935;51.120;13.132;2023-09-30T00:26:34;6.47;;;2.03;;
31306;SDS011;17935;51.120;13.132;2023-09-30T00:29:00;7.80;;;1.92;;
31306;SDS011;17935;51.120;13.132;2023-09-30T00:31:30;3.92;;;1.63;;
31306;SDS011;17935;51.120;13.132;2023-09-30T00:33:56;8.55;;;2.13;;
31306;SDS011;17935;51.120;13.132;2023-09-30T00:36:22;5.25;;;1.70;;
31306;SDS011;17935;51.120;13.132;2023-09-30T00:38:48;3.58;;;1.60;;
31306;SDS011;17935;51.120;13.132;2023-09-30T00:41:14;5.78;;;1.40;;
31306;SDS011;17935;51.120;13.132;2023-09-30T00:43:40;9.25;;;2.50;;
31306;SDS011;17935;51.120;13.132;2023-09-30T00:46:11;10.30;;;1.70;;
31306;SDS011;17935;51.120;13.132;2023-09-30T00:48:39;5.10;;;1.73;;
31306;SDS011;17935;51.120;13.132;2023-09-30T00:51:05;15.23;;;2.00;;
31306;SDS011;17935;51.120;13.132;2023-09-30T00:53:31;6.72;;;1.60;;
31306;SDS011;17935;51.120;13.132;2023-09-30T00:55:58;7.18;;;1.60;;
31306;SDS011;17935;51.120;13.132;2023-09-30T00:58:25;10.80;;;1.55;;
31306;SDS011;17935;51.120;13.132;2023-09-30T01:00:53;11.93;;;1.63;;
31306;SDS011;17935;51.120;13.132;2023-09-30T01:03:20;13.88;;;1.80;;
31306;SDS011;17935;51.120;13.132;2023-09-30T01:05:47;5.53;;;1.45;;
31306;SDS011;17935;51.120;13.132;2023-09-30T01:08:14;10.73;;;1.73;;
31306;SDS011;17935;51.120;13.132;2023-09-30T01:10:40;5.90;;;2.20;;
31306;SDS011;17935;51.120;13.132;2023-09-30T01:13:06;6.38;;;2.80;;
31306;SDS011;17935;51.120;13.132;2023-09-30T01:15:32;3.17;;;1.30;;
31306;SDS011;17935;51.120;13.132;2023-09-30T01:17:59;10.65;;;2.05;;
31306;SDS011;17935;51.120;13.132;2023-09-30T01:20:26;7.55;;;2.20;;
31306;SDS011;17935;51.120;13.132;2023-09-30T01:22:52;15.35;;;2.05;;
31306;SDS011;17935;51.120;13.132;2023-09-30T01:25:20;9.45;;;2.10;;
31306;SDS011;17935;51.120;13.132;2023-09-30T01:27:46;7.88;;;1.63;;
31306;SDS011;17935;51.120;13.132;2023-09-30T01:30:12;6.18;;;1.90;;
31306;SDS011;17935;51.120;13.132;2023-09-30T01:32:39;5.45;;;1.88;;
31306;SDS011;17935;51.120;13.132;2023-09-30T01:35:05;13.57;;;2.25;;
31306;SDS011;17935;51.120;13.132;2023-09-30T01:37:31;4.93;;;1.90;;
31306;SDS011;17935;51.120;13.132;2023-09-30T01:39:57;8.40;;;2.15;;
31306;SDS011;17935;51.120;13.132;2023-09-30T01:42:23;7.85;;;1.98;;
31306;SDS011;17935;51.120;13.132;2023-09-30T01:44:51;7.18;;;2.35;;
31306;SDS011;17935;51.120;13.132;2023-09-30T01:47:17;10.38;;;2.33;;
31306;SDS011;17935;51.120;13.132;2023-09-30T01:49:43;5.32;;;2.20;;
31306;SDS011;17935;51.120;13.132;2023-09-30T01:52:09;7.82;;;2.20;;
31306;SDS011;17935;51.120;13.132;2023-09-30T01:54:35;8.43;;;3.50;;
31306;SDS011;17935;51.120;13.132;2023-09-30T01:57:01;9.10;;;2.05;;
31306;SDS011;17935;51.120;13.132;2023-09-30T01:59:28;12.93;;;2.42;;
31306;SDS011;17935;51.120;13.132;2023-09-30T02:01:54;12.35;;;2.72;;
31306;SDS011;17935;51.120;13.132;2023-09-30T02:04:20;9.20;;;2.38;;
31306;SDS011;17935;51.120;13.132;2023-09-30T02:06:46;11.38;;;2.25;;
31306;SDS011;17935;51.120;13.132;2023-09-30T02:09:12;10.57;;;3.05;;
31306;SDS011;17935;51.120;13.132;2023-09-30T02:11:38;7.78;;;2.40;;
31306;SDS011;17935;51.120;13.132;2023-09-30T02:14:06;11.27;;;2.30;;
31306;SDS011;17935;51.120;13.132;2023-09-30T02:16:32;11.68;;;2.05;;
31306;SDS011;17935;51.120;13.132;2023-09-30T02:18:58;10.90;;;2.67;;
31306;SDS011;17935;51.120;13.132;2023-09-30T02:21:25;9.77;;;2.30;;
31306;SDS011;17935;51.120;13.132;2023-09-30T02:23:52;7.88;;;2.33;;
31306;SDS011;17935;51.120;13.132;2023-09-30T02:26:20;7.72;;;2.28;;
31306;SDS011;17935;51.120;13.132;2023-09-30T02:28:46;11.35;;;4.20;;
31306;SDS011;17935;51.120;13.132;2023-09-30T02:31:12;10.73;;;2.72;;
31306;SDS011;17935;51.120;13.132;2023-09-30T02:33:38;7.82;;;2.50;;
31306;SDS011;17935;51.120;13.132;2023-09-30T02:36:07;10.88;;;2.53;;
31306;SDS011;17935;51.120;13.132;2023-09-30T02:38:34;10.55;;;2.40;;
31306;SDS011;17935;51.120;13.132;2023-09-30T02:41:02;8.95;;;2.60;;
31306;SDS011;17935;51.120;13.132;2023-09-30T02:43:28;8.60;;;2.67;;
31306;SDS011;17935;51.120;13.132;2023-09-30T02:45:54;8.02;;;2.50;;
31306;SDS011;17935;51.120;13.132;2023-09-30T02:48:20;12.15;;;2.72;;
31306;SDS011;17935;51.120;13.132;2023-09-30T02:50:47;11.82;;;2.72;;
31306;SDS011;17935;51.120;13.132;2023-09-30T02:53:13;8.13;;;2.67;;
31306;SDS011;17935;51.120;13.132;2023-09-30T02:55:40;16.00;;;2.80;;
31306;SDS011;17935;51.120;13.132;2023-09-30T02:58:06;10.98;;;2.78;;
31306;SDS011;17935;51.120;13.132;2023-09-30T03:00:33;7.93;;;2.60;;
31306;SDS011;17935;51.120;13.132;2023-09-30T03:03:00;12.55;;;3.15;;
31306;SDS011;17935;51.120;13.132;2023-09-30T03:05:29;6.90;;;3.15;;
31306;SDS011;17935;51.120;13.132;2023-09-30T03:07:58;12.80;;;3.13;;
31306;SDS011;17935;51.120;13.132;2023-09-30T03:10:24;10.00;;;2.80;;
31306;SDS011;17935;51.120;13.132;2023-09-30T03:12:55;16.02;;;3.35;;
31306;SDS011;17935;51.120;13.132;2023-09-30T03:15:21;12.00;;;2.58;;
31306;SDS011;17935;51.120;13.132;2023-09-30T03:17:48;11.15;;;2.95;;
31306;SDS011;17935;51.120;13.132;2023-09-30T03:20:14;8.73;;;2.47;;
31306;SDS011;17935;51.120;13.132;2023-09-30T03:22:44;11.00;;;2.97;;
31306;SDS011;17935;51.120;13.132;2023-09-30T03:25:14;9.50;;;2.72;;
31306;SDS011;17935;51.120;13.132;2023-09-30T03:27:42;8.43;;;2.47;;
31306;SDS011;17935;51.120;13.132;2023-09-30T03:30:08;13.80;;;3.38;;
31306;SDS011;17935;51.120;13.132;2023-09-30T03:32:36;12.88;;;3.30;;
31306;SDS011;17935;51.120;13.132;2023-09-30T03:35:06;8.70;;;3.28;;
31306;SDS011;17935;51.120;13.132;2023-09-30T03:37:35;9.18;;;3.08;;
31306;SDS011;17935;51.120;13.132;2023-09-30T03:40:02;8.38;;;2.90;;
31306;SDS011;17935;51.120;13.132;2023-09-30T03:42:38;13.50;;;2.72;;
31306;SDS011;17935;51.120;13.132;2023-09-30T03:45:05;13.68;;;3.20;;
31306;SDS011;17935;51.120;13.132;2023-09-30T03:47:37;13.40;;;3.20;;
31306;SDS011;17935;51.120;13.132;2023-09-30T03:50:04;7.70;;;2.40;;
31306;SDS011;17935;51.120;13.132;2023-09-30T03:52:32;11.38;;;3.42;;
31306;SDS011;17935;51.120;13.132;2023-09-30T03:55:01;10.18;;;3.58;;
31306;SDS011;17935;51.120;13.132;2023-09-30T03:57:33;11.50;;;3.03;;
31306;SDS011;17935;51.120;13.132;2023-09-30T04:00:00;15.18;;;3.83;;
31306;SDS011;17935;51.120;13.132;2023-09-30T04:02:26;9.80;;;3.17;;
31306;SDS011;17935;51.120;13.132;2023-09-30T04:04:52;13.73;;;4.13;;
31306;SDS011;17935;51.120;13.132;2023-09-30T04:07:20;17.27;;;3.70;;
31306;SDS011;17935;51.120;13.132;2023-09-30T04:09:48;11.07;;;3.50;;
31306;SDS011;17935;51.120;13.132;2023-09-30T04:12:14;18.95;;;5.00;;
31306;SDS011;17935;51.120;13.132;2023-09-30T04:14:40;10.48;;;4.07;;
31306;SDS011;17935;51.120;13.132;2023-09-30T04:17:06;16.27;;;4.28;;
31306;SDS011;17935;51.120;13.132;2023-09-30T04:19:32;15.07;;;4.03;;
31306;SDS011;17935;51.120;13.132;2023-09-30T04:21:58;19.10;;;4.90;;
31306;SDS011;17935;51.120;13.132;2023-09-30T04:24:25;15.30;;;3.60;;
31306;SDS011;17935;51.120;13.132;2023-09-30T04:26:51;13.15;;;3.90;;
31306;SDS011;17935;51.120;13.132;2023-09-30T04:29:21;11.13;;;4.25;;
31306;SDS011;17935;51.120;13.132;2023-09-30T04:31:48;8.20;;;3.17;;
31306;SDS011;17935;51.120;13.132;2023-09-30T04:34:14;15.40;;;4.53;;
31306;SDS011;17935;51.120;13.132;2023-09-30T04:36:40;21.38;;;5.10;;
31306;SDS011;17935;51.120;13.132;2023-09-30T04:39:07;14.25;;;4.20;;
31306;SDS011;17935;51.120;13.132;2023-09-30T04:41:33;17.52;;;4.28;;
31306;SDS011;17935;51.120;13.132;2023-09-30T04:43:59;21.63;;;4.45;;
31306;SDS011;17935;51.120;13.132;2023-09-30T04:46:25;10.27;;;4.28;;
31306;SDS011;17935;51.120;13.132;2023-09-30T04:48:51;9.43;;;3.85;;
31306;SDS011;17935;51.120;13.132;2023-09-30T04:51:17;14.93;;;4.20;;
31306;SDS011;17935;51.120;13.132;2023-09-30T04:53:44;12.50;;;4.35;;
31306;SDS011;17935;51.120;13.132;2023-09-30T04:56:12;18.58;;;5.28;;
31306;SDS011;17935;51.120;13.132;2023-09-30T04:58:38;15.45;;;4.30;;
31306;SDS011;17935;51.120;13.132;2023-09-30T05:01:04;14.20;;;3.83;;
31306;SDS011;17935;51.120;13.132;2023-09-30T05:03:34;11.25;;;4.38;;
31306;SDS011;17935;51.120;13.132;2023-09-30T05:06:00;16.17;;;3.85;;
31306;SDS011;17935;51.120;13.132;2023-09-30T05:08:27;17.77;;;5.15;;
31306;SDS011;17935;51.120;13.132;2023-09-30T05:10:53;16.08;;;4.53;;
31306;SDS011;17935;51.120;13.132;2023-09-30T05:13:20;10.05;;;3.60;;
31306;SDS011;17935;51.120;13.132;2023-09-30T05:15:48;12.40;;;4.40;;
31306;SDS011;17935;51.120;13.132;2023-09-30T05:25:32;10.68;;;3.72;;
31306;SDS011;17935;51.120;13.132;2023-09-30T05:27:58;13.45;;;4.28;;
31306;SDS011;17935;51.120;13.132;2023-09-30T05:30:24;18.98;;;5.10;;
31306;SDS011;17935;51.120;13.132;2023-09-30T05:32:50;14.70;;;4.47;;
31306;SDS011;17935;51.120;13.132;2023-09-30T05:35:17;14.85;;;4.88;;
31306;SDS011;17935;51.120;13.132;2023-09-30T05:37:47;14.88;;;4.65;;
31306;SDS011;17935;51.120;13.132;2023-09-30T05:40:14;15.38;;;4.72;;
31306;SDS011;17935;51.120;13.132;2023-09-30T05:42:54;22.00;;;4.85;;
31306;SDS011;17935;51.120;13.132;2023-09-30T05:45:22;14.90;;;5.60;;
31306;SDS011;17935;51.120;13.132;2023-09-30T05:47:49;16.88;;;5.40;;
31306;SDS011;17935;51.120;13.132;2023-09-30T05:50:17;13.40;;;5.15;;
31306;SDS011;17935;51.120;13.132;2023-09-30T05:52:48;15.48;;;5.50;;
31306;SDS011;17935;51.120;13.132;2023-09-30T05:55:16;13.98;;;5.47;;
31306;SDS011;17935;51.120;13.132;2023-09-30T05:57:44;15.00;;;5.30;;
31306;SDS011;17935;51.120;13.132;2023-09-30T06:00:11;16.25;;;5.40;;
31306;SDS011;17935;51.120;13.132;2023-09-30T06:02:40;15.27;;;5.60;;
31306;SDS011;17935;51.120;13.132;2023-09-30T08:56:00;16.42;;;3.80;;
31306;SDS011;17935;51.120;13.132;2023-09-30T08:58:29;15.05;;;3.33;;
31306;SDS011;17935;51.120;13.132;2023-09-30T09:01:00;12.38;;;4.15;;
31306;SDS011;17935;51.120;13.132;2023-09-30T09:03:27;10.20;;;3.55;;
31306;SDS011;17935;51.120;13.132;2023-09-30T09:05:54;16.80;;;3.88;;
31306;SDS011;17935;51.120;13.132;2023-09-30T09:08:25;17.15;;;3.28;;
31306;SDS011;17935;51.120;13.132;2023-09-30T09:26:06;11.25;;;3.38;;
31306;SDS011;17935;51.120;13.132;2023-09-30T09:28:41;12.55;;;3.60;;
31306;SDS011;17935;51.120;13.132;2023-09-30T09:34:00;22.90;;;3.53;;
31306;SDS011;17935;51.120;13.132;2023-09-30T09:36:44;11.65;;;3.45;;
31306;SDS011;17935;51.120;13.132;2023-09-30T09:39:29;10.23;;;3.10;;
31306;SDS011;17935;51.120;13.132;2023-09-30T09:41:56;9.98;;;3.53;;
31306;SDS011;17935;51.120;13.132;2023-09-30T09:44:23;15.23;;;3.80;;
31306;SDS011;17935;51.120;13.132;2023-09-30T09:46:50;14.18;;;3.30;;
31306;SDS011;17935;51.120;13.132;2023-09-30T09:49:29;8.52;;;2.92;;
31306;SDS011;17935;51.120;13.132;2023-09-30T09:51:55;11.45;;;3.22;;
31306;SDS011;17935;51.120;13.132;2023-09-30T09:54:22;12.05;;;3.35;;
31306;SDS011;17935;51.120;13.132;2023-09-30T09:56:49;11.25;;;3.10;;
31306;SDS011;17935;51.120;13.132;2023-09-30T09:59:15;10.95;;;2.85;;
31306;SDS011;17935;51.120;13.132;2023-09-30T10:01:42;12.50;;;3.38;;
31306;SDS011;17935;51.120;13.132;2023-09-30T10:04:10;14.50;;;3.30;;
31306;SDS011;17935;51.120;13.132;2023-09-30T10:06:38;10.75;;;3.35;;
31306;SDS011;17935;51.120;13.132;2023-09-30T10:09:07;12.13;;;3.15;;
31306;SDS011;17935;51.120;13.132;2023-09-30T10:11:34;10.88;;;3.45;;
31306;SDS011;17935;51.120;13.132;2023-09-30T10:14:00;9.50;;;3.05;;
31306;SDS011;17935;51.120;13.132;2023-09-30T10:19:20;11.13;;;3.03;;
31306;SDS011;17935;51.120;13.132;2023-09-30T10:24:32;15.35;;;4.00;;
31306;SDS011;17935;51.120;13.132;2023-09-30T10:29:47;14.20;;;3.25;;
31306;SDS011;17935;51.120;13.132;2023-09-30T10:32:23;12.98;;;3.03;;
31306;SDS011;17935;51.120;13.132;2023-09-30T10:34:56;8.73;;;3.30;;
31306;SDS011;17935;51.120;13.132;2023-09-30T10:37:30;9.82;;;2.97;;
31306;SDS011;17935;51.120;13.132;2023-09-30T10:40:12;17.80;;;3.30;;
31306;SDS011;17935;51.120;13.132;2023-09-30T10:43:05;11.27;;;2.65;;
31306;SDS011;17935;51.120;13.132;2023-09-30T13:38:30;10.77;;;2.55;;
